• Join FlightAware (Why Join?)
  • Login
  • US Flag 
 
06:32AM EST


 

Airport Tracker/Info


-or-


 

Live Flight TrackerFlight Track Log ✈ N55NT ✈ 04-Aug-2014 ✈ KIAG - KPSM

Flight Track Log - Related Links

Times and Time Zones

All times are in EDT time to prevent confusion due to time zone crossing. See the N55NT flight status page for this flight to view local times or setup timezone preferences in your user account.

Time Position Orientation Groundspeed Altitude Reporting Facility
EDT Latitude Longitude Course Direction KTS MPH feet Rate Location/Type
07:51PM 43.1167 -78.9667 360° North 126 145 900  Level Buffalo TRACON
07:52PM 43.1167 -78.9667 144° Southeast 121 139 1,000 720 Climbing Buffalo TRACON
07:52PM 43.1383 -78.9608 11° North 148 170 1,700 600 Climbing Cleveland Center
07:53PM 43.1664 -78.9181 48° Northeast 156 180 2,200 480 Climbing Cleveland Center
07:54PM 43.1642 -78.8486 92° East 171 197 2,700 540 Climbing Cleveland Center
07:56PM 43.1656 -78.7811 88° East 170 196 3,400 600 Climbing Cleveland Center
07:57PM 43.1650 -78.7142 91° East 170 196 4,000 540 Climbing Cleveland Center
07:58PM 43.1667 -78.6469 88° East 170 196 4,600 660 Climbing Cleveland Center
07:59PM 43.1658 -78.5811 91° East 168 193 5,400 720 Climbing Cleveland Center
08:00PM 43.1675 -78.5217 88° East 166 191 6,200 720 Climbing Cleveland Center
08:01PM 43.1522 -78.4669 111° Southeast 158 182 7,000 780 Climbing Cleveland Center
08:02PM 43.1342 -78.4125 114° Southeast 158 182 7,800 660 Climbing Cleveland Center
08:03PM 43.1200 -78.3536 108° East 158 182 8,400 540 Climbing Cleveland Center
08:04PM 43.1050 -78.2933 109° East 162 186 9,000 660 Climbing Cleveland Center
08:05PM 43.0844 -78.2183 111° Southeast 172 198 9,800 660 Climbing Cleveland Center
08:06PM 43.0758 -78.1517 100° East 176 203 10,400 540 Climbing Cleveland Center
08:07PM 43.0731 -78.0833 93° East 178 205 11,000 540 Climbing Cleveland Center
08:08PM 43.0783 -78.0125 84° East 183 211 11,600 540 Climbing Cleveland Center
08:09PM 43.0822 -77.9428 86° East 184 212 12,200 600 Climbing Cleveland Center
08:10PM 43.0839 -77.8725 88° East 184 212 12,900 660 Climbing Cleveland Center
08:11PM 43.0872 -77.8044 86° East 183 211 13,600 660 Climbing Cleveland Center
08:12PM 43.0889 -77.7350 88° East 183 211 14,300 660 Climbing Cleveland Center
08:13PM 43.0906 -77.6481 88° East 185 213 15,000 300 Climbing Cleveland Center
08:14PM 43.0928 -77.5692 88° East 199 229 15,000  Level Cleveland Center
08:15PM 43.0950 -77.4850 88° East 215 247 15,000  Level Cleveland Center
08:16PM 43.0967 -77.4022 88° East 216 249 15,000  Level Cleveland Center
08:17PM 43.0994 -77.3192 87° East 216 249 15,000  Level Cleveland Center
08:18PM 43.1014 -77.2375 88° East 216 249 15,000  Level Cleveland Center
08:19PM 43.1042 -77.1531 87° East 218 251 15,000  Level Cleveland Center
08:20PM 43.1056 -77.0503 89° East 224 258 15,000  Level Cleveland Center
08:21PM 43.1075 -76.9642 88° East 224 258 15,000  Level Cleveland Center
08:22PM 43.1092 -76.8808 88° East 224 258 15,000  Level Cleveland Center
08:23PM 43.1108 -76.8311 87° East 223 257 15,000  Level Boston Center
08:24PM 43.1117 -76.7472 89° East 223 257 15,000  Level Boston Center
08:25PM 43.1144 -76.6642 87° East 222 255 15,000  Level Boston Center
08:26PM 43.1158 -76.5817 89° East 222 255 15,000  Level Boston Center
08:27PM 43.1169 -76.5003 89° East 219 252 15,000  Level Boston Center
08:28PM 43.1186 -76.4183 88° East 216 249 15,000  Level Boston Center
08:29PM 43.1189 -76.3225 90° East 214 246 15,000  Level Boston Center
08:30PM 43.1214 -76.2456 87° East 207 238 15,000  Level Boston Center
08:31PM 43.1225 -76.1650 89° East 208 239 15,000  Level Boston Center
08:32PM 43.1233 -76.0850 89° East 210 242 15,000  Level Boston Center
08:33PM 43.1247 -76.0042 89° East 211 243 15,000  Level Boston Center
08:34PM 43.1253 -75.9244 89° East 211 243 15,000  Level Boston Center
08:35PM 43.1272 -75.8442 88° East 211 243 15,000  Level Boston Center
08:36PM 43.1278 -75.7633 89° East 211 243 15,000  Level Boston Center
08:37PM 43.1292 -75.6850 89° East 211 243 15,000  Level Boston Center
08:38PM 43.1289 -75.6044 90° East 211 243 15,000  Level Boston Center
08:39PM 43.1300 -75.5092 89° East 210 242 15,000  Level Boston Center
08:40PM 43.1306 -75.4297 89° East 210 242 15,000  Level Boston Center
08:41PM 43.1319 -75.3497 89° East 211 243 15,000  Level Boston Center
08:42PM 43.1319 -75.2708 90° East 209 241 15,000  Level Boston Center
08:43PM 43.1328 -75.1922 89° East 209 241 15,000  Level Boston Center
08:44PM 43.1314 -75.1200 91° East 208 239 15,000  Level Boston Center
08:45PM 43.1325 -75.0411 89° East 208 239 15,000  Level Boston Center
08:46PM 43.1347 -74.9458 88° East 208 239 15,000  Level Boston Center
08:47PM 43.1342 -74.8661 91° East 208 239 15,000  Level Boston Center
08:48PM 43.1347 -74.7856 89° East 210 242 15,000  Level Boston Center
08:49PM 43.1344 -74.7067 90° East 210 242 15,000  Level Boston Center
08:50PM 43.1347 -74.6267 90° East 210 242 15,000  Level Boston Center
08:51PM 43.1353 -74.5453 89° East 210 242 15,000  Level Boston Center
08:52PM 43.1353 -74.4650 90° East 210 242 15,000  Level Boston Center
08:53PM 43.1358 -74.3747 89° East 208 239 15,000  Level Boston Center
08:55PM 43.1361 -74.2939 90° East 210 242 15,000  Level Boston Center
08:56PM 43.1358 -74.2136 90° East 210 242 15,000  Level Boston Center
08:57PM 43.1356 -74.1325 90° East 211 243 15,000  Level Boston Center
08:58PM 43.1347 -74.0464 91° East 211 243 15,000  Level Boston Center
08:59PM 43.1353 -73.9658 89° East 212 244 15,000  Level Boston Center
09:00PM 43.1344 -73.8844 91° East 212 244 15,000  Level Boston Center
09:01PM 43.1344 -73.8036 90° East 212 244 15,000  Level Boston Center
09:02PM 43.1339 -73.7231 91° East 212 244 15,000  Level Boston Center
09:03PM 43.1333 -73.6358 90° East 212 244 15,000  Level Boston Center
09:04PM 43.1322 -73.5542 91° East 214 246 15,000  Level Boston Center
09:05PM 43.1317 -73.4719 91° East 214 246 15,000  Level Boston Center
09:06PM 43.1308 -73.3908 91° East 214 246 15,000  Level Boston Center
09:07PM 43.1300 -73.3106 91° East 214 246 15,000  Level Boston Center
09:08PM 43.1289 -73.2236 91° East 213 245 15,000  Level Boston Center
09:09PM 43.1278 -73.1419 91° East 213 245 15,000  Level Boston Center
09:10PM 43.1267 -73.0603 91° East 214 246 15,000  Level Boston Center
09:11PM 43.1261 -72.9928 91° East 214 246 15,000  Level Boston Center
09:12PM 43.1247 -72.8958 91° East 214 246 15,000  Level Boston Center
09:13PM 43.1233 -72.8139 91° East 214 246 15,000  Level Boston Center
09:14PM 43.1206 -72.7314 93° East 214 246 15,000  Level Boston Center
09:15PM 43.1208 -72.6489 90° East 214 246 15,000 -300 Level Boston Center
09:16PM 43.1189 -72.5661 92° East 216 249 14,500 -780 Descending Boston Center
09:17PM 43.1164 -72.4736 92° East 237 273 13,500 -1,080 Descending Boston Center
09:18PM 43.1158 -72.3806 90° East 244 281 12,400 -1,140 Descending Boston Center
09:19PM 43.1139 -72.2889 92° East 244 281 11,200 -720 Descending Boston Center
09:20PM 43.1131 -72.1969 91° East 226 260 11,000 -360 Descending Boston Center
09:21PM 43.1114 -72.1111 91° East 211 243 10,500 -600 Descending Boston Center
09:22PM 43.1083 -72.0289 93° East 216 249 9,800 -720 Descending Boston Center
09:23PM 43.1078 -71.9475 91° East 216 249 9,100 -720 Descending Boston Center
09:24PM 43.1117 -71.8675 86° East 215 247 8,400 -720 Descending Boston Center
09:25PM 43.1250 -71.7889 77° East 212 244 7,700 -780 Descending Boston Center
09:26PM 43.1375 -71.7064 78° East 210 242 6,900 -720 Descending Boston Center
09:27PM 43.1219 -71.6297 106° East 208 239 6,300 -660 Descending Boston Center
09:28PM 43.1064 -71.5544 106° East 206 237 5,600 -720 Descending Boston Center
09:29PM 43.0900 -71.4792 107° East 206 237 4,900 -780 Descending Boston Center
09:30PM 43.0742 -71.4003 105° East 205 236 4,100 -480 Descending Boston Center
09:31PM 43.0603 -71.3311 105° East 189 217 4,000 -120 Descending Boston Center
09:32PM 43.0494 -71.2678 103° East 175 201 3,900 -300 Descending Boston Center
09:33PM 43.0361 -71.2006 105° East 179 206 3,500 -480 Descending Boston Center
09:34PM 43.0242 -71.1311 103° East 184 212 3,000 -300 Descending Boston Center
09:35PM 43.0111 -71.0619 104° East 177 204 3,000  Level Boston Center
09:36PM 42.9997 -71.0022 105° East 167 192 3,000  Level Boston Center
09:37PM 42.9883 -70.9425 105° East 166 191 3,000  Level Boston Center
09:38PM 42.9689 -70.8908 117° Southeast 160 184 3,000  Level Boston Center
09:39PM 42.9294 -70.8511 144° Southeast 163 188 3,000 -240 Level Boston Center
09:41PM 42.9333 -70.7333 90° East 180 207 2,400 -420 Descending KA90
09:42PM 42.9667 -70.7333 360° North 160 184 1,900 -420 Descending KA90
09:43PM 43.0000 -70.7500 340° North 143 165 1,600 -480 Descending KA90
09:44PM 43.0342 -70.7872 321° Northwest 134 154 900 -660 Descending Boston Center
09:45PM 43.0628 -70.8114 328° Northwest 127 146 200 -360 Descending Boston Center
09:46PM 43.0875 -70.8311 330° Northwest 125 144 200  Level Boston Center